Cranford, NJ

6:40 AM EDT on August 29, 2016 (GMT -0400)
SOUTHSIDE | | Change Station

Elev 85 ft 40.65 °N, 74.28 °W | Updated 31 seconds ago

Scattered Clouds
Scattered Clouds
69.4 °F
Feels Like 69.4 °F
N
0.0
Wind Variable Wind from South

Today
High -- | Low -- °F
--% Chance of Precip.
Yesterday
High -- | Low -- °F
Precip. -- in
Pressure 30.14 in
Visibility 10.0 miles
Clouds Scattered Clouds 5500 ft
Dew Point 64 °F
Humidity 83%
Rainfall 0.00 in
Snow Depth Not available.
6:21 AM 7:33 PM
Waning Crescent, 9% visible
METAR KLDJ 291035Z AUTO 00000KT 10SM SCT055 22/18 A3014 RMK AO2 T02210184
Pressure 30.14 in
Visibility 10.0 miles
Clouds Scattered Clouds 5500 ft
Dew Point 64 °F
Humidity 83%
Rainfall 0.00 in
Snow Depth Not available.
6:21 AM 7:33 PM
Waning Crescent, 9% visible
METAR KLDJ 291035Z AUTO 00000KT 10SM SCT055 22/18 A3014 RMK AO2 T02210184

10-Day Weather Forecast

Almanac

Astronomy

Aug. 29, 2016 Rise Set
Actual Time
Civil Twilight
Nautical Twilight
Astronomical Twilight
Moon
Length of Visible Light
Length of Day
Tomorrow will be .
, % of the Moon is Illuminated

Today's Extremes

State Highs State Lows

Community

WunderPhotos

Upload Photos

1,935,802 photos uploaded!

WunderBlog® & News

Nearby

Air Quality

  Air Quality AQ Index Pollutant
Not available.

Snow Depth

Station Depth Elevation

Earthquake Activity

City Distance Mag. Time & Date
Minimum magnitude displayed is 2.5.

Coastal Water Temperatures

Place Temperature

Stations

Nearby Weather Stations

Station Location Temp. Windchill Dew Point Humidity Wind Precip. Elev Updated Type
                   

Watches & Warnings

There are currently no watches in effect.